Time;durP1;ratioP1;P1;durP2;ratioP2;P2;SDS_P1;SDS_P2;PMS_P1;PMS_P2;Temp;Humidity;BMP_temperature;BMP_pressure;BME280_temperature;BME280_humidity;BME280_pressure;Samples;Min_cycle;Max_cycle;Signal;HPM_P1;HPM_P2
2023/09/08 00:02:05;;;;;;;10.82;8.98;;;;;;;18.79;100.00;63945.63;4827402;29;20262;-80
2023/09/08 00:04:32;;;;;;;10.43;8.63;;;;;;;18.82;100.00;63946.16;4835157;29;20477;-80
2023/09/08 00:06:59;;;;;;;9.88;8.95;;;;;;;18.74;100.00;63940.41;4836022;29;20224;-77
2023/09/08 00:09:26;;;;;;;12.10;8.70;;;;;;;18.71;100.00;63932.13;4828501;29;20259;-79
2023/09/08 00:11:55;;;;;;;9.43;8.43;;;;;;;18.67;97.27;63933.13;4835835;29;20205;-78
2023/09/08 00:14:22;;;;;;;8.55;7.70;;;;;;;18.58;96.69;63921.69;4831521;29;20209;-79
2023/09/08 00:16:49;;;;;;;9.15;8.35;;;;;;;18.65;96.19;63923.28;4836675;29;20283;-79
2023/09/08 00:19:15;;;;;;;8.93;7.72;;;;;;;18.55;95.61;63915.97;4833218;29;20201;-79
2023/09/08 00:21:43;;;;;;;8.13;7.32;;;;;;;18.47;94.28;63907.63;4836141;29;20217;-79
2023/09/08 00:24:10;;;;;;;9.57;7.07;;;;;;;18.42;94.64;63905.53;4832113;29;20513;-78
2023/09/08 00:26:37;;;;;;;7.97;7.30;;;;;;;18.42;94.08;63902.41;4834069;29;20248;-78
2023/09/08 00:29:05;;;;;;;7.57;6.80;;;;;;;18.51;91.60;63913.84;4833673;29;20404;-79
2023/09/08 00:31:32;;;;;;;6.97;6.28;;;;;;;18.40;90.40;63902.91;4830845;29;20390;-78
2023/09/08 00:33:59;;;;;;;6.40;5.57;;;;;;;18.37;89.71;63902.88;4833409;29;20279;-77
2023/09/08 00:36:26;;;;;;;6.47;5.88;;;;;;;18.35;87.93;63895.63;4832893;29;20245;-77
2023/09/08 00:38:53;;;;;;;7.65;5.18;;;;;;;18.43;86.14;63903.97;4832868;29;20225;-78
2023/09/08 00:41:20;;;;;;;5.32;4.95;;;;;;;18.46;85.14;63906.06;4834455;29;20453;-77
2023/09/08 00:43:47;;;;;;;7.22;5.28;;;;;;;18.49;83.04;63909.19;4823417;29;20217;-77
2023/09/08 00:46:15;;;;;;;7.53;5.25;;;;;;;18.56;82.86;63921.66;4836208;29;20245;-79
2023/09/08 00:48:43;;;;;;;5.45;4.95;;;;;;;18.55;81.86;63915.97;4833369;29;20318;-78
2023/09/08 00:51:10;;;;;;;5.30;4.90;;;;;;;18.54;81.37;63911.81;4827363;29;20297;-77
2023/09/08 00:53:37;;;;;;;7.35;4.88;;;;;;;18.55;81.27;63918.03;4833307;29;20450;-77
2023/09/08 00:56:05;;;;;;;5.00;4.35;;;;;;;18.53;81.62;63916.47;4835231;29;20228;-78
2023/09/08 00:58:33;;;;;;;6.35;4.53;;;;;;;18.49;82.09;63909.72;4831944;29;20209;-77
2023/09/08 01:00:59;;;;;;;5.32;4.05;;;;;;;18.56;81.70;63921.66;4829196;29;20228;-77
2023/09/08 01:03:28;;;;;;;7.63;4.68;;;;;;;18.60;81.29;63921.19;4834746;29;20238;-76
2023/09/08 01:05:56;;;;;;;4.15;3.83;;;;;;;18.63;81.77;63923.78;4833321;29;20401;-77
2023/09/08 01:08:23;;;;;;;4.63;4.22;;;;;;;18.61;81.85;63921.69;4849623;29;20405;-77
2023/09/08 01:10:50;;;;;;;5.32;3.88;;;;;;;18.65;82.22;63931.56;4831574;29;20237;-77
2023/09/08 01:13:17;;;;;;;4.30;4.00;;;;;;;18.63;82.97;63926.88;4833360;29;20219;-77
2023/09/08 01:15:44;;;;;;;5.18;4.68;;;;;;;18.64;83.47;63930.50;4837048;29;20282;-78
2023/09/08 01:18:11;;;;;;;4.72;4.30;;;;;;;18.68;83.53;63934.16;4836759;29;20219;-77
2023/09/08 01:21:07;;;;;;;5.00;4.55;;;;;;;18.64;83.45;63927.91;4837168;29;20232;-78
2023/09/08 01:23:51;;;;;;;7.45;4.32;;;;;;;18.64;84.05;63922.75;4826316;29;20210;-78
2023/09/08 01:26:22;;;;;;;5.97;4.13;;;;;;;18.67;84.76;63936.22;4823997;29;20245;-77
2023/09/08 01:28:50;;;;;;;4.63;4.18;;;;;;;18.62;85.61;63925.84;4819709;29;20216;-77
2023/09/08 01:31:18;;;;;;;4.20;3.90;;;;;;;18.70;85.11;63933.66;4830014;29;20284;-78
2023/09/08 01:33:46;;;;;;;6.22;4.43;;;;;;;18.72;86.68;63935.75;4831774;29;20253;-78
2023/09/08 01:36:14;;;;;;;4.80;4.40;;;;;;;18.77;84.92;63941.47;4834256;29;20396;-79
2023/09/08 01:38:41;;;;;;;5.50;4.72;;;;;;;18.70;86.89;63933.66;4819598;29;20272;-78
2023/09/08 01:41:09;;;;;;;8.75;5.10;;;;;;;18.70;87.46;63931.59;4834131;29;20229;-78
2023/09/08 01:43:37;;;;;;;5.63;4.38;;;;;;;18.78;87.21;63939.94;4831756;29;20277;-78
2023/09/08 01:46:04;;;;;;;4.57;4.18;;;;;;;18.72;87.03;63936.28;4832493;29;20240;-79
2023/09/08 01:48:31;;;;;;;4.32;3.95;;;;;;;18.62;87.96;63920.16;4823170;29;20272;-78
2023/09/08 01:50:58;;;;;;;5.35;4.47;;;;;;;18.55;89.00;63921.13;4835320;29;20244;-78
2023/09/08 01:53:25;;;;;;;4.57;4.18;;;;;;;18.59;89.04;63920.13;4838017;29;20212;-79
2023/09/08 01:55:52;;;;;;;5.80;4.57;;;;;;;18.67;89.51;63931.06;4827106;29;20470;-78
2023/09/08 01:58:18;;;;;;;4.60;4.30;;;;;;;18.53;88.85;63921.63;4826644;29;20209;-78
2023/09/08 02:00:51;;;;;;;4.50;4.10;;;;;;;18.56;89.17;63919.59;4835302;29;20233;-77
2023/09/08 02:03:17;;;;;;;7.43;4.32;;;;;;;18.60;89.78;63926.34;4832829;29;20205;-78
2023/09/08 02:05:45;;;;;;;5.30;4.90;;;;;;;18.62;90.95;63923.25;4826292;29;20273;-78
2023/09/08 02:08:13;;;;;;;5.20;4.70;;;;;;;18.58;91.52;63916.00;4821579;29;20205;-78
2023/09/08 02:10:40;;;;;;;6.05;5.45;;;;;;;18.64;92.29;63927.41;4830888;29;20229;-78
2023/09/08 02:13:07;;;;;;;5.13;4.63;;;;;;;18.68;92.01;63932.09;4831653;29;20217;-79
2023/09/08 02:15:36;;;;;;;4.68;4.07;;;;;;;18.70;93.27;63936.25;4831142;29;20236;-76
2023/09/08 02:18:05;;;;;;;5.95;5.20;;;;;;;18.47;97.94;63912.78;4826376;29;20216;-78
2023/09/08 02:20:32;;;;;;;8.18;5.70;;;;;;;18.35;100.00;63895.09;4829150;29;20241;-78
2023/09/08 02:23:05;;;;;;;5.90;5.40;;;;;;;18.34;100.00;63892.00;4842895;29;20204;-78
2023/09/08 02:25:31;;;;;;;5.38;4.88;;;;;;;18.26;100.00;63893.47;4835364;29;20295;-77
2023/09/08 02:27:58;;;;;;;7.32;6.15;;;;;;;18.31;100.00;63890.94;4834229;29;20276;-77
2023/09/08 02:30:25;;;;;;;5.93;5.38;;;;;;;18.28;100.00;63890.38;4831477;29;20229;-78
2023/09/08 02:32:52;;;;;;;5.03;4.63;;;;;;;18.24;100.00;63889.31;4839429;29;20208;-78
2023/09/08 02:35:20;;;;;;;6.47;5.22;;;;;;;18.24;100.00;63886.22;4839480;29;20412;-78
2023/09/08 02:37:47;;;;;;;7.13;5.60;;;;;;;18.29;100.00;63888.88;4836659;29;20223;-79
2023/09/08 02:40:14;;;;;;;10.43;5.28;;;;;;;18.28;99.89;63890.91;4822229;29;20245;-77
2023/09/08 02:42:41;;;;;;;6.30;5.18;;;;;;;18.35;100.00;63892.53;4842936;29;20217;-78
2023/09/08 02:45:08;;;;;;;9.27;4.93;;;;;;;18.27;98.94;63886.78;4835696;29;20244;-78
2023/09/08 02:47:35;;;;;;;5.80;4.38;;;;;;;18.29;98.22;63889.38;4831999;29;20215;-80
2023/09/08 02:50:04;;;;;;;4.85;4.40;;;;;;;18.20;99.78;63885.16;4820923;29;20229;-80
2023/09/08 02:52:32;;;;;;;7.57;4.45;;;;;;;18.17;98.64;63881.53;4832850;29;20207;-78
2023/09/08 02:54:59;;;;;;;6.20;4.57;;;;;;;18.27;97.70;63889.88;4830446;29;20459;-79
2023/09/08 02:57:26;;;;;;;5.07;4.68;;;;;;;18.23;98.49;63880.03;4822520;29;20213;-77
2023/09/08 02:59:56;;;;;;;6.90;4.93;;;;;;;18.11;100.00;63872.69;4836588;29;20595;-78
2023/09/08 03:02:22;;;;;;;6.72;6.10;;;;;;;17.95;100.00;63861.69;4837512;29;20389;-78
2023/09/08 03:04:49;;;;;;;7.93;6.28;;;;;;;17.88;100.00;63851.28;4818872;29;20229;-79
2023/09/08 03:07:16;;;;;;;6.63;6.03;;;;;;;17.89;100.00;63847.19;4840539;29;20264;-79
2023/09/08 03:09:45;;;;;;;9.38;5.88;;;;;;;17.64;100.00;63826.81;4825832;29;20282;-78
2023/09/08 03:12:11;;;;;;;11.77;6.50;;;;;;;17.59;100.00;63813.38;4833507;29;20213;-78
2023/09/08 03:14:38;;;;;;;6.50;5.90;;;;;;;17.52;100.00;63809.19;4829264;29;20241;-78
2023/09/08 03:17:05;;;;;;;9.13;6.30;;;;;;;17.41;100.00;63802.34;4818226;29;20213;-78
2023/09/08 03:19:32;;;;;;;7.05;6.35;;;;;;;17.35;100.00;63791.47;4825744;29;20372;-78
2023/09/08 03:21:59;;;;;;;6.15;5.63;;;;;;;17.28;100.00;63784.69;4840688;29;20209;-78
2023/09/08 03:24:26;;;;;;;7.38;6.22;;;;;;;17.11;100.00;63767.00;4832641;29;20276;-81
2023/09/08 03:26:54;;;;;;;6.72;6.22;;;;;;;17.06;100.00;63763.84;4836801;29;20244;-78
2023/09/08 03:29:21;;;;;;;6.15;5.45;;;;;;;17.01;100.00;63758.66;4827692;29;20220;-78
2023/09/08 03:31:48;;;;;;;6.63;6.03;;;;;;;16.96;100.00;63753.94;4834168;29;20201;-78
2023/09/08 03:34:15;;;;;;;6.82;6.32;;;;;;;16.91;100.00;63748.25;4839071;29;20222;-78
2023/09/08 03:36:42;;;;;;;6.50;5.80;;;;;;;16.86;100.00;63746.13;4841053;29;20239;-77
2023/09/08 03:39:09;;;;;;;8.88;7.00;;;;;;;16.79;100.00;63740.91;4836538;29;20247;-78
2023/09/08 03:41:36;;;;;;;7.30;6.60;;;;;;;16.73;100.00;63729.50;4817220;29;20256;-77
2023/09/08 03:44:05;;;;;;;7.32;6.53;;;;;;;16.70;100.00;63726.38;4824662;29;20209;-78
2023/09/08 03:46:31;;;;;;;8.82;6.57;;;;;;;16.71;100.00;63724.84;4832076;29;20281;-77
2023/09/08 03:49:00;;;;;;;9.35;7.53;;;;;;;16.65;100.00;63721.69;4838378;29;20209;-78
2023/09/08 03:51:27;;;;;;;8.77;6.68;;;;;;;16.61;100.00;63714.97;4825962;29;20538;-78
2023/09/08 03:53:55;;;;;;;9.25;8.35;;;;;;;16.58;100.00;63716.47;4824023;29;20209;-77
2023/09/08 03:56:22;;;;;;;8.23;7.43;;;;;;;16.53;100.00;63706.13;4831464;29;20231;-79
2023/09/08 03:58:49;;;;;;;8.50;7.70;;;;;;;16.49;100.00;63701.97;4838164;29;20208;-79
2023/09/08 04:01:17;;;;;;;8.75;8.02;;;;;;;16.45;100.00;63700.88;4847081;29;20233;-78
2023/09/08 04:03:44;;;;;;;9.18;7.85;;;;;;;16.49;100.00;63701.97;4836054;29;20269;-78
2023/09/08 04:06:11;;;;;;;8.90;8.10;;;;;;;16.48;100.00;63700.94;4832920;29;20424;-78
2023/09/08 04:08:38;;;;;;;9.05;8.15;;;;;;;16.49;100.00;63699.91;4828152;29;20211;-77
2023/09/08 04:11:05;;;;;;;8.95;8.05;;;;;;;16.45;100.00;63698.28;4824174;29;20233;-79
2023/09/08 04:13:32;;;;;;;8.95;8.05;;;;;;;16.51;100.00;63706.59;4830880;29;20270;-78
2023/09/08 04:15:59;;;;;;;10.20;8.38;;;;;;;16.52;100.00;63702.50;4832973;29;20229;-78
2023/09/08 04:18:27;;;;;;;9.20;7.97;;;;;;;16.47;100.00;63697.81;4838058;29;20206;-78
2023/09/08 04:20:54;;;;;;;8.57;7.78;;;;;;;16.45;100.00;63703.44;4830259;29;20309;-78
2023/09/08 04:23:21;;;;;;;9.90;7.70;;;;;;;16.46;100.00;63699.38;4836506;29;20209;-79
2023/09/08 04:25:48;;;;;;;9.52;8.13;;;;;;;16.47;100.00;63699.88;4840133;29;20244;-78
2023/09/08 04:28:15;;;;;;;8.82;7.93;;;;;;;16.53;100.00;63706.63;4838615;29;20227;-78
2023/09/08 04:30:42;;;;;;;9.85;8.32;;;;;;;16.52;100.00;63705.59;4837591;29;20228;-79
2023/09/08 04:33:09;;;;;;;8.95;7.40;;;;;;;16.57;100.00;63710.78;4834539;29;20234;-77
2023/09/08 04:35:37;;;;;;;9.60;7.55;;;;;;;16.57;100.00;63710.28;4833934;29;20217;-77
2023/09/08 04:38:05;;;;;;;9.05;8.07;;;;;;;16.64;100.00;63720.66;4833832;29;20214;-78
2023/09/08 04:40:32;;;;;;;8.70;7.53;;;;;;;16.74;100.00;63731.06;4840170;29;20225;-79
2023/09/08 04:42:58;;;;;;;7.82;7.10;;;;;;;16.82;100.00;63736.28;4832795;29;20233;-77
2023/09/08 04:45:25;;;;;;;7.63;6.93;;;;;;;16.89;100.00;63746.69;4834856;29;20241;-78
2023/09/08 04:47:52;;;;;;;8.48;6.35;;;;;;;17.03;100.00;63763.31;4834583;29;20212;-78
2023/09/08 04:50:19;;;;;;;7.45;6.75;;;;;;;17.12;100.00;63767.50;4835044;29;20232;-77
2023/09/08 04:52:47;;;;;;;6.10;5.50;;;;;;;17.28;100.00;63781.59;4830946;29;20217;-78
2023/09/08 04:55:14;;;;;;;6.65;6.05;;;;;;;17.43;100.00;63801.84;4819292;29;20283;-78
2023/09/08 04:57:41;;;;;;;6.72;6.13;;;;;;;17.54;100.00;63813.31;4820677;29;20252;-78
2023/09/08 05:00:09;;;;;;;6.45;5.95;;;;;;;17.67;100.00;63824.78;4830452;29;20225;-79
2023/09/08 05:02:36;;;;;;;6.25;5.68;;;;;;;17.80;100.00;63837.81;4841080;29;20205;-78
2023/09/08 05:05:04;;;;;;;6.57;5.97;;;;;;;17.96;100.00;63851.91;4843790;29;20235;-77
2023/09/08 05:07:31;;;;;;;6.25;5.57;;;;;;;18.08;100.00;63866.97;4831270;29;20241;-78
2023/09/08 05:09:59;;;;;;;6.70;5.80;;;;;;;18.24;100.00;63889.31;4836087;29;20232;-79
2023/09/08 05:12:26;;;;;;;7.20;5.72;;;;;;;18.40;100.00;63903.44;4838462;29;20238;-78
2023/09/08 05:14:56;;;;;;;6.78;6.10;;;;;;;18.56;100.00;63919.06;4838608;29;20229;-79
2023/09/08 05:17:24;;;;;;;6.78;5.43;;;;;;;18.68;100.00;63929.53;4838208;29;20399;-79
2023/09/08 05:19:51;;;;;;;5.68;5.18;;;;;;;18.85;100.00;63949.81;4831477;29;20240;-79
2023/09/08 05:22:18;;;;;;;5.70;5.20;;;;;;;18.98;100.00;63965.94;4838148;29;20205;-79
2023/09/08 05:24:45;;;;;;;5.70;4.78;;;;;;;19.06;100.00;63966.03;4839530;29;21252;-79
2023/09/08 05:27:13;;;;;;;5.00;4.60;;;;;;;19.21;100.00;63981.66;4833091;29;20240;-78
2023/09/08 05:29:40;;;;;;;4.97;4.57;;;;;;;19.34;95.29;63997.81;4836051;29;20296;-78
2023/09/08 05:32:07;;;;;;;6.05;4.00;;;;;;;19.43;92.08;64007.72;4837173;29;20216;-78
2023/09/08 05:34:34;;;;;;;5.60;5.20;;;;;;;19.57;89.56;64019.22;4837332;29;20209;-77
2023/09/08 05:37:01;;;;;;;6.95;4.63;;;;;;;19.66;87.96;64028.59;4835914;29;20212;-79
2023/09/08 05:39:28;;;;;;;7.32;4.75;;;;;;;19.75;85.32;64043.16;4837500;29;20220;-78
2023/09/08 05:41:55;;;;;;;5.13;4.63;;;;;;;19.91;85.66;64056.75;4837348;29;20200;-78
2023/09/08 05:44:25;;;;;;;6.47;5.82;;;;;;;20.06;85.09;64077.56;4827222;29;20213;-77
2023/09/08 05:46:52;;;;;;;4.95;4.00;;;;;;;20.09;79.20;64078.09;4830007;29;20241;-78
2023/09/08 05:49:19;;;;;;;4.57;4.13;;;;;;;20.05;76.19;64077.03;4819456;29;20220;-79
2023/09/08 05:51:46;;;;;;;4.05;3.70;;;;;;;20.17;77.00;64086.50;4820851;29;20225;-77
2023/09/08 05:54:13;;;;;;;4.78;4.15;;;;;;;20.24;76.89;64091.72;4823897;29;20205;-78
2023/09/08 05:56:40;;;;;;;5.07;3.67;;;;;;;20.30;76.64;64100.56;4837890;29;20580;-80
2023/09/08 05:59:07;;;;;;;4.75;4.03;;;;;;;20.44;74.62;64112.06;4838500;29;20266;-78
2023/09/08 06:01:37;;;;;;;5.07;4.05;;;;;;;20.60;73.98;64123.59;4835029;29;20236;-77
2023/09/08 06:04:04;;;;;;;6.25;4.18;;;;;;;20.54;73.11;64123.03;4836623;29;20664;-78
2023/09/08 06:06:31;;;;;;;4.07;3.78;;;;;;;20.59;72.90;64130.31;4834551;29;20241;-77
2023/09/08 06:08:58;;;;;;;12.60;4.30;;;;;;;20.76;72.27;64145.47;4836289;29;20636;-78
2023/09/08 06:11:25;;;;;;;4.82;4.43;;;;;;;20.82;71.56;64156.91;4824572;29;20233;-77
2023/09/08 06:13:52;;;;;;;4.35;3.45;;;;;;;20.90;68.27;64165.25;4821064;29;20254;-78
2023/09/08 06:16:19;;;;;;;4.43;3.80;;;;;;;20.84;67.16;64153.84;4834476;29;20263;-78
2023/09/08 06:18:48;;;;;;;5.50;3.92;;;;;;;20.93;67.12;64170.47;4833859;29;20209;-77
2023/09/08 06:21:14;;;;;;;4.10;3.78;;;;;;;20.91;64.28;64163.72;4839004;29;20244;-78
2023/09/08 06:23:41;;;;;;;3.97;3.40;;;;;;;20.89;63.79;64161.63;4837530;29;20266;-78
2023/09/08 06:26:08;;;;;;;4.40;4.10;;;;;;;20.94;65.25;64174.63;4835967;29;20287;-78
2023/09/08 06:28:35;;;;;;;3.92;3.63;;;;;;;21.10;65.22;64180.47;4827671;29;20262;-79
2023/09/08 06:31:02;;;;;;;3.47;3.28;;;;;;;21.31;65.73;64208.09;4824436;29;20417;-79
2023/09/08 06:33:29;;;;;;;4.28;3.85;;;;;;;21.51;63.89;64223.28;4832066;29;20239;-80
2023/09/08 06:35:57;;;;;;;5.82;3.80;;;;;;;21.60;63.66;64235.81;4827312;29;20586;-80
2023/09/08 06:38:24;;;;;;;4.18;3.75;;;;;;;21.68;62.81;64238.47;4827192;29;20210;-79
2023/09/08 06:40:52;;;;;;;4.68;4.05;;;;;;;21.87;61.61;64268.19;4836320;29;20228;-81
2023/09/08 06:43:19;;;;;;;3.85;3.65;;;;;;;21.97;58.82;64279.16;4834174;29;20361;-78
2023/09/08 06:45:48;;;;;;;3.80;3.30;;;;;;;21.91;62.13;64269.78;4838585;29;20232;-80
2023/09/08 06:48:15;;;;;;;5.82;3.75;;;;;;;22.10;60.93;64287.56;4839360;29;20251;-79
2023/09/08 06:50:42;;;;;;;4.00;3.47;;;;;;;22.21;59.47;64301.63;4833997;29;20264;-79
2023/09/08 06:53:12;;;;;;;4.32;3.92;;;;;;;22.35;58.94;64313.69;4827082;29;20300;-78
2023/09/08 06:55:39;;;;;;;4.97;3.88;;;;;;;22.31;58.62;64303.78;4820452;29;20538;-77
2023/09/08 06:58:06;;;;;;;4.68;4.28;;;;;;;22.50;59.85;64329.34;4818994;29;20224;-78
2023/09/08 07:00:33;;;;;;;4.10;3.33;;;;;;;22.66;58.19;64345.59;4827272;29;20283;-80
2023/09/08 07:03:00;;;;;;;9.13;4.57;;;;;;;22.86;57.18;64361.84;4822531;29;20205;-79
2023/09/08 07:05:26;;;;;;;5.00;4.35;;;;;;;22.92;57.71;64370.16;4834771;29;20232;-79
2023/09/08 07:07:53;;;;;;;4.07;3.65;;;;;;;23.15;56.69;64399.44;4836918;29;20279;-78
2023/09/08 07:10:22;;;;;;;4.55;3.55;;;;;;;23.34;55.87;64418.81;4834430;29;20454;-80
2023/09/08 07:12:49;;;;;;;3.80;3.20;;;;;;;23.46;54.31;64428.75;4827481;29;20520;-80
2023/09/08 07:15:16;;;;;;;3.90;3.20;;;;;;;23.42;53.15;64427.69;4824189;29;20233;-79
2023/09/08 07:17:43;;;;;;;4.35;4.00;;;;;;;23.43;54.00;64425.63;4838369;29;20283;-78
2023/09/08 07:20:11;;;;;;;4.35;2.85;;;;;;;23.47;52.89;64430.31;4835883;29;20228;-78
2023/09/08 07:22:38;;;;;;;4.32;3.40;;;;;;;23.46;53.84;64429.28;4821836;29;20211;-79
2023/09/08 07:25:06;;;;;;;4.47;3.70;;;;;;;23.71;53.72;64454.91;4832212;29;20353;-80
2023/09/08 07:27:35;;;;;;;3.88;3.55;;;;;;;23.89;52.52;64476.34;4835656;29;20255;-79
2023/09/08 07:30:02;;;;;;;4.65;3.97;;;;;;;24.02;52.08;64489.47;4825527;29;20443;-79
2023/09/08 07:32:30;;;;;;;3.33;3.03;;;;;;;24.15;51.12;64500.44;4833315;29;20194;-79
2023/09/08 07:34:57;;;;;;;4.45;3.20;;;;;;;24.21;50.35;64512.47;4842110;29;20246;-80
2023/09/08 07:37:24;;;;;;;4.43;3.20;;;;;;;24.16;50.66;64502.03;4835558;29;20294;-80
2023/09/08 07:39:51;;;;;;;3.90;3.58;;;;;;;24.05;50.93;64490.53;4832454;29;20237;-79
2023/09/08 07:42:18;;;;;;;3.60;3.30;;;;;;;23.74;50.84;64460.66;4824508;29;20213;-78
2023/09/08 07:44:47;;;;;;;3.70;3.45;;;;;;;23.76;51.17;64462.75;4828318;29;20237;-78
2023/09/08 07:47:14;;;;;;;3.15;2.95;;;;;;;23.94;51.76;64476.38;4831492;29;20228;-79
2023/09/08 07:49:47;;;;;;;3.75;3.50;;;;;;;23.96;51.04;64483.69;4836833;29;20233;-79
2023/09/08 07:52:14;;;;;;;3.35;3.15;;;;;;;23.51;52.58;64434.50;4829773;29;20281;-78
2023/09/08 07:54:41;;;;;;;5.30;3.65;;;;;;;23.71;52.89;64455.44;4839857;29;20221;-79
2023/09/08 07:57:08;;;;;;;4.40;4.05;;;;;;;23.97;52.24;64480.03;4825311;29;20263;-78
2023/09/08 07:59:35;;;;;;;4.45;3.45;;;;;;;24.13;51.14;64498.88;4831331;29;20217;-78
2023/09/08 08:02:04;;;;;;;3.28;3.08;;;;;;;24.55;50.29;64542.34;4837690;29;20242;-79
2023/09/08 08:04:31;;;;;;;3.58;3.30;;;;;;;24.87;48.45;64573.78;4836965;29;20228;-80
2023/09/08 08:06:58;;;;;;;4.13;3.15;;;;;;;25.10;46.80;64597.88;4835408;29;20270;-78
2023/09/08 08:09:25;;;;;;;3.60;3.30;;;;;;;25.29;47.77;64617.25;4823889;29;20226;-79
2023/09/08 08:11:52;;;;;;;4.35;3.28;;;;;;;25.40;45.92;64633.50;4822112;29;20282;-80
2023/09/08 08:14:19;;;;;;;3.88;3.00;;;;;;;25.47;46.32;64635.59;4818222;29;20445;-79
2023/09/08 08:16:46;;;;;;;6.15;3.00;;;;;;;25.45;46.24;64636.66;4817830;29;20217;-78
2023/09/08 08:19:14;;;;;;;3.35;3.15;;;;;;;25.10;45.96;64599.94;4831736;29;20275;-78
2023/09/08 08:21:42;;;;;;;3.30;3.10;;;;;;;25.02;46.21;64589.47;4824072;29;20292;-78
2023/09/08 08:24:10;;;;;;;3.38;2.45;;;;;;;24.78;46.40;64566.44;4825772;29;20234;-81
2023/09/08 08:26:37;;;;;;;3.08;2.95;;;;;;;24.59;48.11;64552.25;4835857;29;20508;-80
2023/09/08 08:29:04;;;;;;;2.97;2.88;;;;;;;24.27;47.57;64510.41;4832770;29;20422;-79
2023/09/08 08:31:32;;;;;;;2.72;2.55;;;;;;;24.23;47.85;64511.94;4830089;29;20225;-78
2023/09/08 08:33:59;;;;;;;3.53;3.22;;;;;;;23.86;47.60;64476.34;4819172;29;20228;-79
2023/09/08 08:36:29;;;;;;;2.85;2.75;;;;;;;23.74;49.11;64460.66;4819373;29;20233;-79
2023/09/08 08:38:56;;;;;;;3.42;3.00;;;;;;;23.57;48.07;64443.38;4824950;29;20245;-79
2023/09/08 08:41:24;;;;;;;3.50;3.20;;;;;;;23.64;47.94;64450.19;4830720;29;20339;-79
2023/09/08 08:43:52;;;;;;;2.78;2.65;;;;;;;23.57;49.07;64440.78;4820057;29;20522;-81
2023/09/08 08:46:21;;;;;;;4.30;3.63;;;;;;;23.57;49.97;64445.97;4826079;29;20250;-79
2023/09/08 08:48:54;;;;;;;3.63;3.35;;;;;;;23.62;50.47;64446.03;4836220;29;20237;-78
2023/09/08 08:51:24;;;;;;;4.20;3.22;;;;;;;23.72;49.68;64458.56;4824985;29;20237;-76
2023/09/08 08:53:52;;;;;;;3.25;3.00;;;;;;;23.83;48.17;64470.59;4827048;29;20209;-78
2023/09/08 08:56:19;;;;;;;3.38;3.08;;;;;;;23.85;47.97;64470.09;4831600;29;20232;-79
2023/09/08 08:58:47;;;;;;;5.35;3.20;;;;;;;23.98;47.49;64485.78;4827555;29;20216;-80
2023/09/08 09:01:15;;;;;;;3.50;3.00;;;;;;;24.25;47.25;64514.06;4823680;29;20236;-80
2023/09/08 09:03:43;;;;;;;3.72;3.35;;;;;;;24.39;46.68;64526.09;4827454;29;20276;-78
2023/09/08 09:06:11;;;;;;;4.53;3.20;;;;;;;24.48;47.12;64535.00;4832209;29;20232;-76
2023/09/08 09:08:40;;;;;;;5.68;3.22;;;;;;;24.64;47.37;64552.28;4838585;29;20295;-78
2023/09/08 09:11:08;;;;;;;3.58;3.28;;;;;;;24.87;45.15;64575.84;4834851;29;20277;-80
2023/09/08 09:13:37;;;;;;;4.75;3.45;;;;;;;25.06;43.88;64598.91;4839582;29;20223;-79
2023/09/08 09:16:07;;;;;;;3.83;3.50;;;;;;;25.23;44.44;64618.28;4834227;29;20248;-79
2023/09/08 09:18:35;;;;;;;3.58;3.38;;;;;;;25.48;44.39;64647.09;4820749;29;20211;-78
2023/09/08 09:21:02;;;;;;;4.13;3.10;;;;;;;25.72;45.26;64667.53;4827932;29;20570;-78
2023/09/08 09:23:30;;;;;;;6.13;3.67;;;;;;;26.01;43.87;64697.41;4838145;29;20536;-79
2023/09/08 09:25:58;;;;;;;4.07;3.33;;;;;;;26.05;43.53;64699.03;4839661;29;20229;-80
2023/09/08 09:28:29;;;;;;;3.92;3.63;;;;;;;26.23;43.13;64717.91;4826102;29;20319;-79
2023/09/08 09:30:56;;;;;;;3.17;2.97;;;;;;;26.05;41.79;64696.94;4829090;29;20274;-78
2023/09/08 09:33:24;;;;;;;3.13;2.92;;;;;;;26.36;41.10;64725.75;4830781;29;20213;-78
2023/09/08 09:35:52;;;;;;;2.75;2.65;;;;;;;26.33;42.66;64728.38;4834185;29;20254;-79
2023/09/08 09:38:20;;;;;;;4.93;3.33;;;;;;;26.53;42.05;64749.34;4837459;29;20213;-80
2023/09/08 09:40:48;;;;;;;3.40;3.20;;;;;;;26.59;42.00;64755.09;4832876;29;20252;-78
2023/09/08 09:43:16;;;;;;;3.80;3.60;;;;;;;26.79;41.77;64779.25;4820585;29;20206;-80
2023/09/08 09:45:45;;;;;;;3.35;3.15;;;;;;;26.35;42.79;64724.72;4837146;29;20277;-78
2023/09/08 09:48:12;;;;;;;4.30;4.00;;;;;;;26.04;42.05;64695.38;4820105;29;20245;-78
2023/09/08 09:50:41;;;;;;;3.72;3.47;;;;;;;26.29;42.09;64732.00;4820631;29;20237;-79
2023/09/08 09:53:12;;;;;;;3.75;3.50;;;;;;;26.04;43.49;64703.19;4827787;29;20220;-79
2023/09/08 09:55:41;;;;;;;3.58;3.38;;;;;;;25.71;43.67;64665.97;4836839;29;20293;-79
2023/09/08 09:58:10;;;;;;;3.67;3.47;;;;;;;25.79;44.18;64671.75;4836751;29;20213;-78
2023/09/08 10:00:38;;;;;;;3.53;3.33;;;;;;;26.11;43.97;64703.22;4820562;29;20233;-79
2023/09/08 10:03:07;;;;;;;3.28;3.00;;;;;;;26.28;41.25;64722.59;4829619;29;20216;-78
2023/09/08 10:05:35;;;;;;;4.38;3.40;;;;;;;26.38;42.65;64735.69;4825477;29;20229;-80
2023/09/08 10:08:02;;;;;;;3.47;3.28;;;;;;;26.80;42.63;64779.78;4836481;29;20246;-80
2023/09/08 10:10:34;;;;;;;3.67;3.22;;;;;;;26.90;41.46;64790.78;4832019;29;20522;-79
2023/09/08 10:13:05;;;;;;;2.90;2.70;;;;;;;26.86;41.16;64783.44;4829547;29;20208;-79
2023/09/08 10:15:33;;;;;;;3.33;3.13;;;;;;;26.95;41.59;64795.50;4818937;29;20425;-79
2023/09/08 10:18:04;;;;;;;3.80;3.30;;;;;;;27.17;41.16;64815.97;4822870;29;20205;-79
2023/09/08 10:20:34;;;;;;;3.67;3.38;;;;;;;27.16;40.99;64815.44;4828156;29;20233;-78
2023/09/08 10:23:07;;;;;;;4.35;3.80;;;;;;;27.20;41.34;64817.03;4831499;29;20219;-78
2023/09/08 10:25:39;;;;;;;5.43;3.13;;;;;;;26.71;41.50;64768.25;4800351;29;1208832;-78
2023/09/08 10:28:07;;;;;;;3.22;3.03;;;;;;;26.40;42.01;64738.34;4832250;29;20907;-79
2023/09/08 10:30:35;;;;;;;4.88;3.13;;;;;;;26.45;41.89;64743.03;4836638;29;20221;-78
2023/09/08 10:33:03;;;;;;;3.45;3.15;;;;;;;26.31;41.69;64723.13;4831701;29;20268;-79
2023/09/08 10:35:32;;;;;;;3.78;2.85;;;;;;;26.35;39.42;64738.31;4837189;29;20224;-79
2023/09/08 10:38:23;;;;;;;6.38;3.58;;;;;;;26.54;41.08;64749.88;4835797;29;20256;-80
2023/09/08 10:40:50;;;;;;;3.50;3.30;;;;;;;26.43;42.03;64738.31;4835366;29;20575;-80
2023/09/08 10:43:19;;;;;;;4.45;3.25;;;;;;;26.46;42.04;64744.59;4840352;29;20201;-79
2023/09/08 10:45:47;;;;;;;3.65;3.50;;;;;;;26.57;42.60;64753.53;4836528;29;20594;-79
2023/09/08 10:48:15;;;;;;;4.13;3.35;;;;;;;26.29;41.31;64726.78;4837950;29;20244;-78
2023/09/08 10:50:44;;;;;;;6.38;3.80;;;;;;;26.53;41.09;64751.94;4834889;29;20232;-78
2023/09/08 10:53:15;;;;;;;3.15;2.95;;;;;;;26.75;42.01;64769.81;4825898;29;20436;-78
2023/09/08 10:55:47;;;;;;;3.95;3.63;;;;;;;26.93;40.98;64790.78;4827841;29;20293;-79
2023/09/08 10:58:20;;;;;;;3.40;3.20;;;;;;;27.02;41.22;64800.22;4827888;29;20215;-79
2023/09/08 11:00:48;;;;;;;4.05;3.63;;;;;;;27.20;40.37;64819.63;4833390;29;20301;-79
2023/09/08 11:03:28;;;;;;;3.75;3.40;;;;;;;27.27;40.23;64829.06;4833201;29;20514;-77
2023/09/08 11:05:57;;;;;;;6.13;3.25;;;;;;;27.09;40.46;64810.69;4828047;29;20232;-79
2023/09/08 11:08:24;;;;;;;2.92;2.83;;;;;;;27.18;40.03;64822.25;4831728;29;20240;-79
2023/09/08 11:10:51;;;;;;;4.97;3.65;;;;;;;27.24;40.40;64823.84;4837155;29;20262;-77
2023/09/08 11:13:19;;;;;;;3.63;3.30;;;;;;;27.27;40.91;64829.06;4834560;29;20254;-81
2023/09/08 11:15:46;;;;;;;3.08;2.92;;;;;;;26.83;41.61;64780.31;4836970;29;20236;-78
2023/09/08 11:18:13;;;;;;;3.90;3.47;;;;;;;26.21;42.63;64716.31;4837315;29;20221;-79
2023/09/08 11:20:40;;;;;;;8.15;3.92;;;;;;;26.19;43.39;64713.69;4831917;29;20335;-78
2023/09/08 11:23:09;;;;;;;8.95;3.22;;;;;;;26.15;43.23;64712.63;4831207;29;20209;-79
2023/09/08 11:25:37;;;;;;;3.60;3.30;;;;;;;26.04;44.20;64700.59;4838002;29;20241;-79
2023/09/08 11:28:07;;;;;;;3.88;3.30;;;;;;;25.93;44.11;64689.56;4842272;29;20307;-81
2023/09/08 11:30:35;;;;;;;4.18;3.30;;;;;;;25.80;44.69;64678.03;4845261;29;20525;-79
2023/09/08 11:33:02;;;;;;;3.72;3.42;;;;;;;25.78;45.20;64671.22;4819933;29;20212;-78
2023/09/08 11:35:32;;;;;;;3.90;3.60;;;;;;;25.86;45.21;64679.63;4819329;29;20233;-79